createdAt,value
2023-03-30T00:01:02.916Z,6.35
2023-03-30T00:03:30.386Z,5.45
2023-03-30T00:06:05.184Z,6.78
2023-03-30T00:08:33.366Z,6.50
2023-03-30T00:11:02.614Z,4.95
2023-03-30T00:13:30.880Z,7.13
2023-03-30T00:15:58.095Z,9.48
2023-03-30T00:18:26.406Z,9.68
2023-03-30T00:20:53.657Z,5.55
2023-03-30T00:23:20.831Z,4.68
2023-03-30T00:25:48.381Z,8.68
2023-03-30T00:28:15.758Z,4.88
2023-03-30T00:30:43.418Z,7.30
2023-03-30T00:33:10.860Z,4.68
2023-03-30T00:35:38.054Z,7.28
2023-03-30T00:38:05.884Z,5.68
2023-03-30T00:40:34.702Z,3.75
2023-03-30T00:43:06.630Z,5.07
2023-03-30T00:45:36.612Z,5.50
2023-03-30T00:48:09.390Z,5.53
2023-03-30T00:50:52.608Z,5.93
2023-03-30T00:53:33.736Z,10.37
2023-03-30T00:56:03.058Z,5.15
2023-03-30T00:58:32.044Z,4.05
2023-03-30T01:01:02.075Z,4.97
2023-03-30T01:03:36.258Z,6.38
2023-03-30T01:06:07.564Z,3.70
2023-03-30T01:08:36.433Z,2.88
2023-03-30T01:11:06.502Z,4.22
2023-03-30T01:13:39.684Z,5.72
2023-03-30T01:16:25.390Z,3.53
2023-03-30T01:19:18.837Z,6.18
2023-03-30T01:22:01.581Z,3.23
2023-03-30T01:24:53.504Z,9.00
2023-03-30T01:27:48.393Z,2.58
2023-03-30T01:30:33.243Z,7.53
2023-03-30T01:33:03.681Z,4.53
2023-03-30T01:36:01.787Z,4.53
2023-03-30T01:38:55.742Z,4.28
2023-03-30T01:41:52.379Z,5.75
2023-03-30T01:44:40.840Z,4.78
2023-03-30T01:47:10.855Z,3.42
2023-03-30T01:50:03.334Z,3.38
2023-03-30T01:52:53.113Z,2.88
2023-03-30T01:55:28.915Z,3.75
2023-03-30T01:58:03.698Z,3.47
2023-03-30T02:00:31.506Z,9.80
2023-03-30T02:03:08.725Z,4.75
2023-03-30T02:05:38.002Z,2.90
2023-03-30T02:08:10.471Z,4.05
2023-03-30T02:10:39.561Z,6.03
2023-03-30T02:13:08.261Z,3.72
2023-03-30T02:15:50.145Z,3.33
2023-03-30T02:18:19.457Z,4.03
2023-03-30T02:20:47.465Z,2.47
2023-03-30T02:23:17.358Z,3.53
2023-03-30T02:25:45.085Z,5.43
2023-03-30T02:28:12.230Z,1.90
2023-03-30T02:30:42.588Z,5.32
2023-03-30T02:33:37.708Z,5.95
2023-03-30T02:36:34.442Z,4.57
2023-03-30T02:39:35.681Z,5.28
2023-03-30T02:42:40.720Z,3.92
2023-03-30T02:45:26.287Z,3.90
2023-03-30T02:48:01.482Z,2.45
2023-03-30T02:50:37.372Z,3.17
2023-03-30T02:53:40.461Z,4.80
2023-03-30T02:56:19.245Z,4.00
2023-03-30T02:59:05.928Z,3.63
2023-03-30T03:01:36.296Z,3.83
2023-03-30T03:04:06.086Z,1.92
2023-03-30T03:06:33.375Z,5.68
2023-03-30T03:09:00.482Z,4.50
2023-03-30T03:11:27.567Z,2.55
2023-03-30T03:13:55.508Z,5.10
2023-03-30T03:16:22.968Z,4.93
2023-03-30T03:18:50.276Z,8.27
2023-03-30T03:21:17.334Z,1.98
2023-03-30T03:23:44.458Z,10.10
2023-03-30T03:26:11.727Z,4.15
2023-03-30T03:28:39.508Z,3.47
2023-03-30T03:31:06.950Z,2.80
2023-03-30T03:33:34.405Z,2.90
2023-03-30T03:36:01.739Z,2.30
2023-03-30T03:38:29.576Z,7.13
2023-03-30T03:40:58.546Z,6.05
2023-03-30T03:43:26.214Z,3.60
2023-03-30T03:45:53.629Z,4.43
2023-03-30T03:48:23.555Z,7.38
2023-03-30T03:50:56.470Z,2.67
2023-03-30T03:53:26.398Z,5.40
2023-03-30T03:55:54.708Z,6.65
2023-03-30T03:58:22.204Z,4.93
2023-03-30T04:00:49.616Z,3.78
2023-03-30T04:03:17.006Z,3.30
2023-03-30T04:05:44.458Z,8.68
2023-03-30T04:08:11.876Z,6.13
2023-03-30T04:10:41.521Z,3.22
2023-03-30T04:13:09.515Z,4.63
2023-03-30T04:15:36.787Z,3.33
2023-03-30T04:18:05.326Z,2.28
2023-03-30T04:20:32.735Z,3.88
2023-03-30T04:23:01.756Z,2.50
2023-03-30T04:25:29.319Z,4.32
2023-03-30T04:27:57.226Z,4.38
2023-03-30T04:30:24.802Z,6.22
2023-03-30T04:33:04.599Z,3.92
2023-03-30T04:35:33.291Z,2.90
2023-03-30T04:38:01.942Z,6.47
2023-03-30T04:40:29.432Z,7.30
2023-03-30T04:43:02.225Z,9.02
2023-03-30T04:45:32.842Z,6.63
2023-03-30T04:47:59.983Z,5.80
2023-03-30T04:50:27.083Z,4.68
2023-03-30T04:52:54.181Z,5.55
2023-03-30T04:55:21.263Z,6.57
2023-03-30T04:57:48.334Z,9.98
2023-03-30T05:00:16.077Z,3.65
2023-03-30T05:02:43.326Z,2.72
2023-03-30T05:05:10.932Z,3.78
2023-03-30T05:07:38.083Z,12.15
2023-03-30T05:10:05.304Z,4.95
2023-03-30T05:12:32.759Z,3.67
2023-03-30T05:14:59.880Z,11.98
2023-03-30T05:17:26.921Z,2.33
2023-03-30T05:19:54.591Z,1.92
2023-03-30T05:22:21.895Z,3.95
2023-03-30T05:24:49.202Z,9.30
2023-03-30T05:27:16.200Z,6.47
2023-03-30T05:29:43.197Z,6.97
2023-03-30T05:32:10.902Z,4.63
2023-03-30T05:34:37.975Z,3.80
2023-03-30T05:37:05.024Z,7.72
2023-03-30T05:39:32.496Z,5.60
2023-03-30T05:41:59.591Z,5.13
2023-03-30T05:44:26.714Z,14.68
2023-03-30T05:46:54.473Z,5.10
2023-03-30T05:49:21.900Z,4.88
2023-03-30T05:51:48.956Z,12.25
2023-03-30T05:54:15.992Z,4.80
2023-03-30T05:56:43.159Z,5.68
2023-03-30T05:59:11.679Z,6.82
2023-03-30T06:01:39.324Z,7.72
2023-03-30T06:04:06.949Z,9.00
2023-03-30T06:06:34.183Z,6.13
2023-03-30T06:09:02.657Z,5.50
2023-03-30T06:11:30.230Z,7.55
2023-03-30T06:13:57.920Z,7.63
2023-03-30T06:16:25.676Z,8.82
2023-03-30T06:18:52.994Z,9.30
2023-03-30T06:21:20.706Z,17.92
2023-03-30T06:23:49.021Z,8.20
2023-03-30T06:26:16.216Z,11.05
2023-03-30T06:28:43.447Z,8.02
2023-03-30T06:31:12.100Z,7.63
2023-03-30T06:33:41.954Z,6.80
2023-03-30T06:36:14.312Z,9.48
2023-03-30T06:38:43.635Z,13.93
2023-03-30T06:41:12.634Z,9.70
2023-03-30T06:43:40.725Z,9.43
2023-03-30T06:46:09.570Z,10.75
2023-03-30T06:48:36.816Z,13.50
2023-03-30T06:51:04.316Z,11.55
2023-03-30T06:53:31.799Z,5.78
2023-03-30T06:55:59.372Z,10.32
2023-03-30T06:58:27.576Z,16.50
2023-03-30T07:00:54.834Z,13.68
2023-03-30T07:03:23.026Z,9.07
2023-03-30T07:05:51.189Z,24.85
2023-03-30T07:08:20.023Z,12.88
2023-03-30T07:10:48.316Z,12.82
2023-03-30T07:13:16.960Z,8.80
2023-03-30T07:15:45.706Z,13.40
2023-03-30T07:18:13.242Z,12.93
2023-03-30T07:20:40.976Z,11.27
2023-03-30T07:23:09.593Z,9.32
2023-03-30T07:25:36.714Z,8.40
2023-03-30T07:28:06.262Z,11.77
2023-03-30T07:30:34.677Z,12.75
2023-03-30T07:33:02.006Z,7.75
2023-03-30T07:35:29.168Z,15.43
2023-03-30T07:38:02.694Z,13.25
2023-03-30T07:40:30.929Z,10.30
2023-03-30T07:42:58.422Z,11.07
2023-03-30T07:45:25.655Z,16.10
2023-03-30T07:47:53.219Z,9.25
2023-03-30T07:50:22.079Z,10.85
2023-03-30T07:52:53.787Z,14.35
2023-03-30T07:55:21.161Z,9.95
2023-03-30T07:57:48.222Z,13.60
2023-03-30T08:00:15.805Z,15.02
2023-03-30T08:02:42.927Z,14.63
2023-03-30T08:05:11.342Z,10.98
2023-03-30T08:07:39.546Z,7.47
2023-03-30T08:10:08.176Z,8.15
2023-03-30T08:12:35.377Z,18.00
2023-03-30T08:15:03.365Z,9.02
2023-03-30T08:17:30.968Z,11.30
2023-03-30T08:19:58.133Z,13.75
2023-03-30T08:22:25.412Z,14.52
2023-03-30T08:24:53.400Z,15.07
2023-03-30T08:27:20.594Z,14.50
2023-03-30T08:29:48.777Z,6.82
2023-03-30T08:32:16.262Z,15.73
2023-03-30T08:34:43.345Z,11.65
2023-03-30T08:37:11.982Z,11.48
2023-03-30T08:39:39.423Z,16.05
2023-03-30T08:42:12.582Z,10.75
2023-03-30T08:44:46.274Z,13.23
2023-03-30T08:47:16.964Z,11.00
2023-03-30T08:50:17.457Z,14.70
2023-03-30T08:52:45.599Z,11.15
2023-03-30T08:55:39.506Z,13.35
2023-03-30T08:58:34.425Z,18.92
2023-03-30T09:01:18.577Z,9.57
2023-03-30T09:06:41.107Z,12.43
2023-03-30T09:09:13.153Z,21.55
2023-03-30T09:11:40.997Z,10.25
2023-03-30T09:14:17.395Z,12.07
2023-03-30T09:17:29.436Z,13.25
2023-03-30T09:20:01.311Z,8.63
2023-03-30T09:22:37.563Z,13.77
2023-03-30T09:25:49.279Z,10.60
2023-03-30T09:28:39.567Z,10.82
2023-03-30T09:31:21.806Z,9.63
2023-03-30T09:34:10.338Z,13.02
2023-03-30T09:37:04.869Z,9.20
2023-03-30T09:39:34.899Z,16.42
2023-03-30T09:42:21.167Z,13.73
2023-03-30T09:44:56.164Z,10.90
2023-03-30T09:47:37.370Z,11.55
2023-03-30T09:50:26.860Z,13.80
2023-03-30T09:52:58.970Z,17.65
2023-03-30T09:55:34.581Z,12.35
2023-03-30T09:58:19.086Z,12.23
2023-03-30T10:00:47.294Z,14.48
2023-03-30T10:03:23.047Z,15.40
2023-03-30T10:06:13.170Z,13.07
2023-03-30T10:08:48.365Z,25.38
2023-03-30T10:11:38.126Z,15.98
2023-03-30T10:14:07.431Z,16.45
2023-03-30T10:16:35.562Z,14.50
2023-03-30T10:19:09.795Z,16.65
2023-03-30T10:21:40.734Z,19.00
2023-03-30T10:24:23.155Z,17.10
2023-03-30T10:26:53.813Z,15.68
2023-03-30T10:29:23.439Z,13.35
2023-03-30T10:31:59.932Z,19.95
2023-03-30T10:34:33.100Z,10.32
2023-03-30T10:37:00.360Z,14.70
2023-03-30T10:39:33.642Z,22.42
2023-03-30T10:42:04.217Z,17.60
2023-03-30T10:44:55.936Z,12.32
2023-03-30T10:47:41.448Z,11.65
2023-03-30T10:50:35.755Z,20.05
2023-03-30T10:53:19.831Z,13.30
2023-03-30T10:58:55.028Z,20.77
2023-03-30T11:01:32.614Z,19.67
2023-03-30T11:04:53.916Z,13.65
2023-03-30T11:07:43.926Z,21.45
2023-03-30T11:10:29.261Z,15.15
2023-03-30T11:13:07.014Z,13.52
2023-03-30T11:15:59.180Z,11.18
2023-03-30T11:18:34.387Z,11.98
2023-03-30T11:21:05.700Z,12.70
2023-03-30T11:23:35.459Z,12.73
2023-03-30T11:26:08.391Z,14.27
2023-03-30T11:29:07.277Z,13.27
2023-03-30T11:31:50.190Z,14.32
2023-03-30T11:34:40.954Z,18.20
2023-03-30T11:37:27.252Z,14.63
2023-03-30T11:40:13.861Z,16.23
2023-03-30T11:42:41.842Z,15.45
2023-03-30T11:45:21.527Z,8.68
2023-03-30T11:47:54.513Z,8.02
2023-03-30T11:50:24.473Z,19.43
2023-03-30T11:53:11.159Z,14.30
2023-03-30T11:56:07.832Z,15.90
2023-03-30T11:58:47.662Z,8.93
2023-03-30T12:01:30.836Z,12.63
2023-03-30T12:04:10.850Z,13.70
2023-03-30T12:06:47.440Z,19.80
2023-03-30T12:09:29.072Z,14.48
2023-03-30T12:12:11.978Z,14.27
2023-03-30T12:14:51.122Z,19.50
2023-03-30T12:17:26.801Z,14.10
2023-03-30T12:20:20.405Z,13.05
2023-03-30T12:22:55.840Z,13.38
2023-03-30T12:25:38.179Z,25.25
2023-03-30T12:28:16.539Z,18.63
2023-03-30T12:30:59.673Z,15.23
2023-03-30T12:33:48.711Z,13.37
2023-03-30T12:36:40.611Z,11.43
2023-03-30T12:39:22.188Z,21.77
2023-03-30T12:41:50.849Z,26.63
2023-03-30T12:44:48.783Z,22.23
2023-03-30T12:47:23.153Z,19.45
2023-03-30T12:50:27.713Z,9.30
2023-03-30T12:55:43.609Z,11.65
2023-03-30T12:58:30.195Z,15.70
2023-03-30T13:01:06.271Z,10.23
2023-03-30T13:03:53.443Z,14.07
2023-03-30T13:06:33.365Z,16.17
2023-03-30T13:09:12.478Z,19.00
2023-03-30T13:12:02.493Z,12.80
2023-03-30T13:14:34.209Z,16.58
2023-03-30T13:17:01.497Z,11.85
2023-03-30T13:19:31.928Z,13.60
2023-03-30T13:22:11.252Z,19.65
2023-03-30T13:24:53.479Z,12.85
2023-03-30T13:27:23.008Z,9.73
2023-03-30T13:30:13.988Z,15.00
2023-03-30T13:32:53.212Z,21.60
2023-03-30T13:35:32.848Z,18.50
2023-03-30T13:38:18.590Z,25.27
2023-03-30T13:41:05.345Z,18.13
2023-03-30T13:43:40.977Z,19.38
2023-03-30T13:46:17.094Z,19.55
2023-03-30T13:49:09.800Z,20.45
2023-03-30T13:51:39.840Z,20.70
2023-03-30T13:54:29.396Z,19.58
2023-03-30T13:57:06.447Z,13.93
2023-03-30T13:59:38.373Z,9.95
2023-03-30T14:02:06.380Z,11.30
2023-03-30T14:04:37.202Z,15.18
2023-03-30T14:07:16.159Z,16.95
2023-03-30T14:10:22.148Z,16.75
2023-03-30T14:12:53.632Z,17.52
2023-03-30T14:15:33.938Z,20.55
2023-03-30T14:18:04.657Z,16.63
2023-03-30T14:21:07.031Z,15.05
2023-03-30T14:23:45.839Z,14.52
2023-03-30T14:26:30.859Z,13.98
2023-03-30T14:29:02.913Z,9.90
2023-03-30T14:31:39.921Z,15.60
2023-03-30T14:34:27.062Z,11.43
2023-03-30T14:37:00.651Z,14.30
2023-03-30T14:39:29.878Z,18.98
2023-03-30T14:42:01.227Z,15.25
2023-03-30T14:44:28.294Z,14.40
2023-03-30T14:46:56.057Z,18.10
2023-03-30T14:49:27.513Z,13.85
2023-03-30T14:52:03.082Z,10.38
2023-03-30T14:54:30.833Z,8.52
2023-03-30T14:57:00.311Z,13.73
2023-03-30T14:59:28.837Z,15.73
2023-03-30T15:01:56.690Z,9.93
2023-03-30T15:04:28.966Z,13.32
2023-03-30T15:06:56.148Z,12.90
2023-03-30T15:09:24.916Z,8.65
2023-03-30T15:12:00.020Z,17.60
2023-03-30T15:14:32.930Z,9.93
2023-03-30T15:17:04.116Z,22.45
2023-03-30T15:19:36.494Z,12.60
2023-03-30T15:22:20.674Z,12.07
2023-03-30T15:24:47.842Z,10.88
2023-03-30T15:27:16.449Z,16.95
2023-03-30T15:29:44.933Z,12.30
2023-03-30T15:32:19.319Z,8.52
2023-03-30T15:35:04.465Z,7.85
2023-03-30T15:37:33.095Z,12.48
2023-03-30T15:40:00.640Z,9.80
2023-03-30T15:42:32.983Z,9.68
2023-03-30T15:45:12.251Z,15.63
2023-03-30T15:47:40.838Z,14.85
2023-03-30T15:50:14.061Z,10.40
2023-03-30T15:52:44.896Z,16.40
2023-03-30T15:55:23.977Z,13.73
2023-03-30T15:57:51.893Z,13.70
2023-03-30T16:00:22.100Z,14.23
2023-03-30T16:02:57.773Z,7.80
2023-03-30T16:05:29.546Z,13.82
2023-03-30T16:07:56.890Z,9.05
2023-03-30T16:10:32.572Z,8.55
2023-03-30T16:13:00.855Z,9.32
2023-03-30T16:15:30.466Z,10.70
2023-03-30T16:17:57.867Z,11.88
2023-03-30T16:20:28.688Z,8.77
2023-03-30T16:22:56.062Z,15.23
2023-03-30T16:25:41.701Z,11.55
2023-03-30T16:28:16.318Z,11.25
2023-03-30T16:30:46.208Z,4.47
2023-03-30T16:33:13.417Z,5.88
2023-03-30T16:35:41.333Z,14.80
2023-03-30T16:38:13.700Z,8.48
2023-03-30T16:40:43.328Z,9.15
2023-03-30T16:43:11.594Z,12.13
2023-03-30T16:45:39.653Z,9.65
2023-03-30T16:48:06.958Z,8.40
2023-03-30T16:50:46.834Z,8.65
2023-03-30T16:53:13.979Z,7.93
2023-03-30T16:55:41.217Z,4.70
2023-03-30T16:58:11.076Z,10.13
2023-03-30T17:00:49.161Z,6.68
2023-03-30T17:03:18.144Z,8.57
2023-03-30T17:05:48.668Z,7.22
2023-03-30T17:08:28.659Z,11.52
2023-03-30T17:11:01.056Z,5.55
2023-03-30T17:13:28.596Z,9.68
2023-03-30T17:15:58.200Z,7.60
2023-03-30T17:18:25.896Z,6.63
2023-03-30T17:20:57.663Z,7.82
2023-03-30T17:23:27.635Z,11.15
2023-03-30T17:25:56.318Z,9.98
2023-03-30T17:28:31.782Z,10.65
2023-03-30T17:31:01.446Z,10.82
2023-03-30T17:33:30.663Z,11.32
2023-03-30T17:36:01.641Z,13.35
2023-03-30T17:38:29.910Z,10.30
2023-03-30T17:40:57.454Z,20.83
2023-03-30T17:43:26.468Z,11.90
2023-03-30T17:45:53.716Z,5.78
2023-03-30T17:48:21.842Z,15.75
2023-03-30T17:50:50.981Z,10.27
2023-03-30T17:53:20.084Z,12.18
2023-03-30T17:55:49.255Z,14.23
2023-03-30T17:58:20.683Z,10.98
2023-03-30T18:00:48.576Z,13.45
2023-03-30T18:03:17.370Z,8.27
2023-03-30T18:05:44.816Z,11.82
2023-03-30T18:08:17.943Z,6.07
2023-03-30T18:10:49.503Z,12.00
2023-03-30T18:13:16.563Z,12.48
2023-03-30T18:15:46.294Z,9.77
2023-03-30T18:18:14.276Z,7.90
2023-03-30T18:20:44.006Z,8.18
2023-03-30T18:23:11.105Z,10.48
2023-03-30T18:25:38.156Z,12.45
2023-03-30T18:28:13.674Z,12.27
2023-03-30T18:30:40.800Z,17.60
2023-03-30T18:33:08.154Z,12.75
2023-03-30T18:35:36.950Z,13.23
2023-03-30T18:38:05.378Z,11.02
2023-03-30T18:40:41.837Z,12.65
2023-03-30T18:43:09.392Z,9.27
2023-03-30T18:45:42.393Z,10.77
2023-03-30T18:48:13.221Z,7.72
2023-03-30T18:50:46.870Z,8.20
2023-03-30T18:53:19.150Z,13.10
2023-03-30T18:55:48.779Z,13.27
2023-03-30T18:58:24.346Z,21.67
2023-03-30T19:00:53.267Z,12.45
2023-03-30T19:03:22.413Z,10.07
2023-03-30T19:05:50.994Z,16.13
2023-03-30T19:08:23.696Z,18.77
2023-03-30T19:10:54.818Z,11.63
2023-03-30T19:13:23.197Z,14.75
2023-03-30T19:15:51.339Z,16.83
2023-03-30T19:18:19.285Z,14.70
2023-03-30T19:20:49.305Z,10.90
2023-03-30T19:23:17.866Z,10.48
2023-03-30T19:25:45.713Z,12.95
2023-03-30T19:28:14.622Z,18.30
2023-03-30T19:30:42.228Z,9.77
2023-03-30T19:33:12.402Z,13.05
2023-03-30T19:35:41.324Z,16.77
2023-03-30T19:38:09.746Z,15.57
2023-03-30T19:40:39.534Z,21.33
2023-03-30T19:43:07.628Z,15.30
2023-03-30T19:45:35.630Z,13.05
2023-03-30T19:48:02.901Z,11.15
2023-03-30T19:50:30.554Z,17.25
2023-03-30T19:52:58.414Z,13.93
2023-03-30T19:55:26.196Z,18.15
2023-03-30T19:57:53.673Z,18.98
2023-03-30T20:00:21.129Z,15.73
2023-03-30T20:02:50.911Z,13.05
2023-03-30T20:05:19.657Z,15.55
2023-03-30T20:07:47.167Z,13.98
2023-03-30T20:10:21.421Z,12.60
2023-03-30T20:12:49.665Z,15.98
2023-03-30T20:15:17.975Z,15.70
2023-03-30T20:17:45.324Z,10.75
2023-03-30T20:20:17.034Z,13.32
2023-03-30T20:22:44.648Z,12.20
2023-03-30T20:25:13.961Z,15.43
2023-03-30T20:27:41.528Z,17.58
2023-03-30T20:30:09.844Z,8.20
2023-03-30T20:32:37.193Z,16.52
2023-03-30T20:35:06.142Z,23.27
2023-03-30T20:37:33.795Z,19.73
2023-03-30T20:40:09.682Z,11.82
2023-03-30T20:42:40.737Z,12.23
2023-03-30T20:45:08.492Z,16.27
2023-03-30T20:47:36.490Z,11.32
2023-03-30T20:50:05.321Z,17.85
2023-03-30T20:52:32.732Z,11.40
2023-03-30T20:54:59.766Z,16.15
2023-03-30T20:57:27.478Z,21.95
2023-03-30T20:59:54.774Z,14.55
2023-03-30T21:02:22.312Z,11.90
2023-03-30T21:04:50.352Z,11.52
2023-03-30T21:07:18.009Z,12.43
2023-03-30T21:09:45.817Z,16.23
2023-03-30T21:12:13.063Z,17.15
2023-03-30T21:14:41.004Z,11.30
2023-03-30T21:17:08.184Z,9.93
2023-03-30T21:19:35.730Z,9.95
2023-03-30T21:22:03.079Z,10.55
2023-03-30T21:24:30.570Z,9.50
2023-03-30T21:26:57.673Z,11.88
2023-03-30T21:29:25.057Z,13.70
2023-03-30T21:31:52.298Z,9.55
2023-03-30T21:34:20.157Z,16.38
2023-03-30T21:36:47.395Z,7.10
2023-03-30T21:39:14.471Z,8.20
2023-03-30T21:41:41.606Z,9.23
2023-03-30T21:44:08.668Z,9.52
2023-03-30T21:46:36.191Z,12.48
2023-03-30T21:49:03.673Z,13.45
2023-03-30T21:51:31.691Z,12.82
2023-03-30T21:53:59.478Z,20.05
2023-03-30T21:56:29.826Z,9.02
2023-03-30T21:58:57.950Z,18.75
2023-03-30T22:01:26.011Z,9.75
2023-03-30T22:03:54.040Z,9.52
2023-03-30T22:06:22.139Z,22.92
2023-03-30T22:08:49.712Z,12.45
2023-03-30T22:11:19.308Z,11.52
2023-03-30T22:13:48.346Z,11.63
2023-03-30T22:16:19.240Z,14.77
2023-03-30T22:18:46.857Z,12.02
2023-03-30T22:21:35.548Z,13.10
2023-03-30T22:24:04.205Z,11.52
2023-03-30T22:26:31.804Z,9.68
2023-03-30T22:28:58.890Z,14.48
2023-03-30T22:31:27.510Z,12.48
2023-03-30T22:33:56.355Z,7.70
2023-03-30T22:36:31.631Z,12.30
2023-03-30T22:39:00.846Z,11.45
2023-03-30T22:41:28.183Z,9.88
2023-03-30T22:43:57.226Z,13.73
2023-03-30T22:46:26.030Z,22.92
2023-03-30T22:48:55.716Z,13.50
2023-03-30T22:51:27.539Z,22.98
2023-03-30T22:53:58.684Z,14.15
2023-03-30T22:56:27.278Z,13.73
2023-03-30T22:58:54.691Z,9.52
2023-03-30T23:01:22.363Z,11.80
2023-03-30T23:03:49.570Z,15.70
2023-03-30T23:06:19.130Z,14.18
2023-03-30T23:08:48.258Z,14.20
2023-03-30T23:11:15.825Z,15.20
2023-03-30T23:13:42.927Z,19.88
2023-03-30T23:16:11.155Z,13.23
2023-03-30T23:18:40.124Z,16.02
2023-03-30T23:21:10.968Z,13.70
2023-03-30T23:23:38.357Z,16.13
2023-03-30T23:26:10.937Z,8.75
2023-03-30T23:28:41.156Z,12.75
2023-03-30T23:31:13.312Z,8.45
2023-03-30T23:33:41.858Z,13.57
2023-03-30T23:36:13.677Z,10.73
2023-03-30T23:38:42.435Z,8.10
2023-03-30T23:41:12.564Z,13.82
2023-03-30T23:43:39.928Z,17.70
2023-03-30T23:46:07.245Z,13.00
2023-03-30T23:48:34.532Z,14.70
2023-03-30T23:51:01.704Z,9.60
2023-03-30T23:53:28.804Z,11.98
2023-03-30T23:55:56.268Z,20.90
2023-03-30T23:58:25.220Z,9.20
